Kettering, Ohio
Current Conditions -  °F | °C
As of 12:16 PM on Thursday 27 Nov 2014 (Local Time) from KMGY Reporting Station
Overcast Overcast  
Wind Chill: -5°   Ceiling: 3000
Heat Index:   Visibility: 10mi
Dew Point: -6°   Wind: 10mph
Humidity: 64%   Direction: 300°WNW
Pressure: 30.24"   Gusts: NA
Location:  39.7°N, 84.16°W
Report Text: KMGY 271716Z AUTO 30009KT 10SM BKN030 OVC036 00/M06 A3024 RMK AO2 T00001061
Loading
Personal Weather Stations






























Interactive Weather Map New forecast layout! Learn more

10-Day Weather Forecast

Advertisements
Track Severe Weather on mobile